KGED/GED METAR and TAF weather

Enter ICAO airport designator
Station Type Date Time Source
KGED METAR 2020/04/06 09:54 UTC NOAA

KGED 060954Z AUTO 25004KT 10SM CLR 11/09 A3000 RMK AO2 SLP158 T01060094


Station Type Date Time Source
KGED Decoded METAR 2020/04/06 09:54 UTC NOAA

GEORGETOWN SUSSEX CO AIRPORT , DE, United States (KGED) 38-41N 075-22W 19M
Apr 06, 2020 - 05:54 AM EDT / 2020.04.06 0954 UTC
Wind: from the WSW (250 degrees) at 5 MPH (4 KT):0
Visibility: 10 mile(s):0
Sky conditions: clear
Temperature: 51.1 F (10.6 C)
Dew Point: 48.9 F (9.4 C)
Relative Humidity: 92%
Pressure (altimeter): 30 in. Hg (1015 hPa)
ob: KGED 060954Z AUTO 25004KT 10SM CLR 11/09 A3000 RMK AO2 SLP158 T01060094
cycle: 10

Station Type Date Time Source
KGED TAF UTC NOAA

Error!

Example: see airport list